Terminal Aerodrome Forecast
Issued by NWS Grand Forks, ND

Home | Current Version | Previous Version | Graphics & Text | Print | Product List | Glossary On
Versions: 1 2 3 4 5 6 7 8 9 10 11 12 13
000
FTUS43 KFGF 191100
TAFGFK
TAF
KGFK 191120Z 1912/2012 18011KT P6SM SCT110
     FM191600 33011G20KT P6SM FEW200
     FM200000 33008KT P6SM FEW200=

USA.gov is the U.S. government's official web portal to all federal, state and local government web resources and services.